createdAt,value
2023-04-05T00:00:40.934Z,57.00
2023-04-05T00:03:14.396Z,56.90
2023-04-05T00:05:50.451Z,56.80
2023-04-05T00:08:24.264Z,56.70
2023-04-05T00:10:52.936Z,56.50
2023-04-05T00:13:26.322Z,56.80
2023-04-05T00:15:58.245Z,58.40
2023-04-05T00:18:36.834Z,56.40
2023-04-05T00:21:08.954Z,56.80
2023-04-05T00:23:41.591Z,58.00
2023-04-05T00:26:14.284Z,57.20
2023-04-05T00:28:51.386Z,59.10
2023-04-05T00:31:22.205Z,57.60
2023-04-05T00:33:50.322Z,57.70
2023-04-05T00:36:20.059Z,57.30
2023-04-05T00:38:49.296Z,59.10
2023-04-05T00:41:17.940Z,59.40
2023-04-05T00:43:47.080Z,58.10
2023-04-05T00:46:15.121Z,58.80
2023-04-05T00:48:43.244Z,59.50
2023-04-05T00:51:11.795Z,59.30
2023-04-05T00:53:40.738Z,59.00
2023-04-05T00:56:12.457Z,59.90
2023-04-05T00:58:41.441Z,59.80
2023-04-05T01:01:22.408Z,58.60
2023-04-05T01:03:59.949Z,59.70
2023-04-05T01:06:48.100Z,59.70
2023-04-05T01:09:41.179Z,59.40
2023-04-05T01:12:12.512Z,59.20
2023-04-05T01:14:51.542Z,59.30
2023-04-05T01:17:22.295Z,59.40
2023-04-05T01:19:53.612Z,59.30
2023-04-05T01:22:42.243Z,59.40
2023-04-05T01:25:38.816Z,59.70
2023-04-05T01:28:33.361Z,59.80
2023-04-05T01:31:15.598Z,59.10
2023-04-05T01:34:02.179Z,59.40
2023-04-05T01:36:45.152Z,60.00
2023-04-05T01:39:16.587Z,60.80
2023-04-05T01:41:44.316Z,61.20
2023-04-05T01:44:16.147Z,59.80
2023-04-05T01:46:45.195Z,60.70
2023-04-05T01:49:14.606Z,60.50
2023-04-05T01:51:45.137Z,60.40
2023-04-05T01:54:17.196Z,60.40
2023-04-05T01:56:47.353Z,61.00
2023-04-05T01:59:16.389Z,60.90
2023-04-05T02:01:50.316Z,61.00
2023-04-05T02:04:31.033Z,62.20
2023-04-05T02:07:03.041Z,62.80
2023-04-05T02:09:31.513Z,63.30
2023-04-05T02:11:59.731Z,63.40
2023-04-05T02:14:28.016Z,63.70
2023-04-05T02:16:56.885Z,64.00
2023-04-05T02:19:26.181Z,64.40
2023-04-05T02:22:06.958Z,64.40
2023-04-05T02:24:40.498Z,66.20
2023-04-05T02:27:18.725Z,66.20
2023-04-05T02:29:46.599Z,65.80
2023-04-05T02:32:16.087Z,64.90
2023-04-05T02:34:43.906Z,67.20
2023-04-05T02:37:15.024Z,65.90
2023-04-05T02:39:43.323Z,66.40
2023-04-05T02:42:12.741Z,66.40
2023-04-05T02:44:40.609Z,67.60
2023-04-05T02:47:09.804Z,67.00
2023-04-05T02:49:37.865Z,66.70
2023-04-05T02:52:07.676Z,67.60
2023-04-05T02:54:36.605Z,66.60
2023-04-05T02:57:04.323Z,67.20
2023-04-05T02:59:42.568Z,67.60
2023-04-05T03:02:10.872Z,69.00
2023-04-05T03:04:39.234Z,68.00
2023-04-05T03:07:08.256Z,67.40
2023-04-05T03:09:43.048Z,68.40
2023-04-05T03:12:20.075Z,67.70
2023-04-05T03:14:49.071Z,68.40
2023-04-05T03:17:21.327Z,67.90
2023-04-05T03:20:00.861Z,68.20
2023-04-05T03:22:34.333Z,68.70
2023-04-05T03:25:40.373Z,68.90
2023-04-05T03:28:18.559Z,68.10
2023-04-05T03:30:52.140Z,67.40
2023-04-05T03:33:21.844Z,68.70
2023-04-05T03:35:52.412Z,70.60
2023-04-05T03:38:24.198Z,69.10
2023-04-05T03:41:07.620Z,68.50
2023-04-05T03:43:36.995Z,68.80
2023-04-05T03:46:05.504Z,69.90
2023-04-05T03:48:34.803Z,69.20
2023-04-05T03:51:04.031Z,68.80
2023-04-05T03:53:32.625Z,67.50
2023-04-05T03:56:01.636Z,68.70
2023-04-05T03:58:59.547Z,67.70
2023-04-05T04:01:30.884Z,66.80
2023-04-05T04:04:00.474Z,68.90
2023-04-05T04:06:32.377Z,67.20
2023-04-05T04:09:01.189Z,68.00
2023-04-05T04:11:31.878Z,68.30
2023-04-05T04:14:03.453Z,68.40
2023-04-05T04:16:47.134Z,68.10
2023-04-05T04:19:44.146Z,67.80
2023-04-05T04:22:39.239Z,68.20
2023-04-05T04:25:20.109Z,68.00
2023-04-05T04:28:28.922Z,68.20
2023-04-05T04:31:17.737Z,68.60
2023-04-05T04:34:09.635Z,67.70
2023-04-05T04:39:53.158Z,69.90
2023-04-05T04:42:39.428Z,70.30
2023-04-05T04:45:21.857Z,70.00
2023-04-05T04:51:04.944Z,69.60
2023-04-05T04:56:59.060Z,69.10
2023-04-05T05:00:09.287Z,69.80
2023-04-05T05:02:46.283Z,70.00
2023-04-05T05:05:31.508Z,69.70
2023-04-05T05:11:23.231Z,70.00
2023-04-05T05:13:59.465Z,70.30
2023-04-05T05:16:38.737Z,70.00
2023-04-05T05:19:11.562Z,70.20
2023-04-05T05:50:02.029Z,73.20
2023-04-05T05:52:31.541Z,73.80
2023-04-05T05:54:59.468Z,71.60
2023-04-05T05:57:27.270Z,70.00
2023-04-05T06:00:25.091Z,69.80
2023-04-05T06:02:53.843Z,69.90
2023-04-05T06:05:23.032Z,68.20
2023-04-05T06:08:25.338Z,66.90
2023-04-05T06:10:54.052Z,67.30
2023-04-05T06:13:21.466Z,66.90
2023-04-05T06:15:49.134Z,66.70
2023-04-05T06:18:22.296Z,65.30
2023-04-05T06:20:57.291Z,65.00
2023-04-05T06:23:27.492Z,63.90
2023-04-05T06:26:01.957Z,63.10
2023-04-05T06:28:34.039Z,62.40
2023-04-05T06:31:11.623Z,62.90
2023-04-05T06:33:46.609Z,61.60
2023-04-05T06:36:14.844Z,61.90
2023-04-05T06:38:47.305Z,61.50
2023-04-05T06:41:19.181Z,61.70
2023-04-05T06:43:52.389Z,61.50
2023-04-05T06:46:20.209Z,62.20
2023-04-05T06:48:49.729Z,61.40
2023-04-05T06:51:18.148Z,60.40
2023-04-05T06:53:45.861Z,59.70
2023-04-05T06:56:13.804Z,59.00
2023-04-05T06:58:41.949Z,58.90
2023-04-05T07:01:10.082Z,58.50
2023-04-05T07:03:37.506Z,58.80
2023-04-05T07:06:05.129Z,59.60
2023-04-05T07:08:33.437Z,60.80
2023-04-05T07:11:01.273Z,59.70
2023-04-05T07:13:29.159Z,58.60
2023-04-05T07:16:01.811Z,58.90
2023-04-05T07:18:30.349Z,56.30
2023-04-05T07:21:03.758Z,55.20
2023-04-05T07:24:46.926Z,54.70
2023-04-05T07:27:15.487Z,53.90
2023-04-05T07:29:44.518Z,52.40
2023-04-05T07:32:12.888Z,50.50
2023-04-05T07:34:41.912Z,50.00
2023-04-05T07:37:09.452Z,50.60
2023-04-05T07:39:36.858Z,49.10
2023-04-05T07:42:04.436Z,47.90
2023-04-05T07:44:31.843Z,48.40
2023-04-05T07:46:59.240Z,46.90
2023-04-05T07:49:30.433Z,46.40
2023-04-05T07:51:57.960Z,45.10
2023-04-05T07:54:25.312Z,44.40
2023-04-05T07:56:52.985Z,43.30
2023-04-05T07:59:20.301Z,43.20
2023-04-05T08:01:47.612Z,44.00
2023-04-05T08:04:14.925Z,40.60
2023-04-05T08:06:42.286Z,41.40
2023-04-05T08:09:11.626Z,39.80
2023-04-05T08:11:38.953Z,39.70
2023-04-05T08:14:06.564Z,40.40
2023-04-05T08:16:34.512Z,38.20
2023-04-05T08:19:02.033Z,38.90
2023-04-05T08:21:29.233Z,38.40
2023-04-05T08:23:56.526Z,37.60
2023-04-05T08:26:24.077Z,37.40
2023-04-05T08:28:52.070Z,36.60
2023-04-05T08:31:20.707Z,36.50
2023-04-05T08:33:48.661Z,34.70
2023-04-05T08:36:16.390Z,35.20
2023-04-05T08:38:43.730Z,34.70
2023-04-05T08:41:23.141Z,33.30
2023-04-05T08:43:59.833Z,34.90
2023-04-05T08:46:28.001Z,32.20
2023-04-05T08:48:56.630Z,31.40
2023-04-05T08:51:26.068Z,33.00
2023-04-05T08:53:53.661Z,31.70
2023-04-05T08:56:26.156Z,31.00
2023-04-05T08:59:00.653Z,30.70
2023-04-05T09:01:30.626Z,30.40
2023-04-05T09:04:02.438Z,29.80
2023-04-05T09:06:29.910Z,29.50
2023-04-05T09:08:58.629Z,30.60
2023-04-05T09:11:26.145Z,30.00
2023-04-05T09:13:55.186Z,29.00
2023-04-05T09:16:23.546Z,28.60
2023-04-05T09:18:50.986Z,27.80
2023-04-05T09:21:18.314Z,28.00
2023-04-05T09:23:54.063Z,27.30
2023-04-05T09:26:23.926Z,27.70
2023-04-05T09:28:55.785Z,28.20
2023-04-05T09:31:34.063Z,27.70
2023-04-05T09:34:05.804Z,27.80
2023-04-05T09:36:43.206Z,27.40
2023-04-05T09:39:10.640Z,27.70
2023-04-05T09:41:39.289Z,27.10
2023-04-05T09:44:07.096Z,27.30
2023-04-05T09:46:38.024Z,28.00
2023-04-05T09:49:07.855Z,27.50
2023-04-05T09:51:37.490Z,27.80
2023-04-05T09:54:08.905Z,28.70
2023-04-05T09:56:54.627Z,29.50
2023-04-05T09:59:22.161Z,30.00
2023-04-05T10:01:52.163Z,28.80
2023-04-05T10:04:19.880Z,28.60
2023-04-05T10:06:48.453Z,28.90
2023-04-05T10:09:17.955Z,29.50
2023-04-05T10:11:45.832Z,30.00
2023-04-05T10:14:13.113Z,30.20
2023-04-05T10:17:08.338Z,30.10
2023-04-05T10:20:09.546Z,30.90
2023-04-05T10:23:01.117Z,30.80
2023-04-05T10:25:40.427Z,29.70
2023-04-05T10:28:15.155Z,30.60
2023-04-05T10:30:47.822Z,30.40
2023-04-05T10:33:30.621Z,31.30
2023-04-05T10:36:05.131Z,33.40
2023-04-05T10:38:43.160Z,32.70
2023-04-05T10:41:16.875Z,32.70
2023-04-05T10:43:46.030Z,32.50
2023-04-05T10:46:19.479Z,33.20
2023-04-05T10:48:46.772Z,33.40
2023-04-05T10:51:15.392Z,33.90
2023-04-05T10:53:43.970Z,33.80
2023-04-05T10:56:12.561Z,33.70
2023-04-05T10:58:42.340Z,35.30
2023-04-05T11:01:11.568Z,34.20
2023-04-05T11:03:45.726Z,34.70
2023-04-05T11:06:31.964Z,33.70
2023-04-05T11:09:00.927Z,35.00
2023-04-05T11:11:39.122Z,34.50
2023-04-05T11:14:23.511Z,34.70
2023-04-05T11:16:56.308Z,34.40
2023-04-05T11:19:42.371Z,34.50
2023-04-05T11:22:10.615Z,35.00
2023-04-05T11:24:57.641Z,35.20
2023-04-05T11:27:26.952Z,34.00
2023-04-05T11:29:54.798Z,34.10
2023-04-05T11:32:23.440Z,33.60
2023-04-05T11:35:08.189Z,33.10
2023-04-05T11:38:00.494Z,32.90
2023-04-05T11:40:32.093Z,33.30
2023-04-05T11:43:08.204Z,33.40
2023-04-05T11:45:37.938Z,32.70
2023-04-05T11:48:13.499Z,33.00
2023-04-05T11:50:42.196Z,34.00
2023-04-05T11:53:14.380Z,34.70
2023-04-05T11:55:51.908Z,32.10
2023-04-05T11:58:21.818Z,32.00
2023-04-05T12:01:03.561Z,32.70
2023-04-05T12:03:32.049Z,31.20
2023-04-05T12:06:03.724Z,31.60
2023-04-05T12:08:52.923Z,30.70
2023-04-05T12:11:28.074Z,32.80
2023-04-05T12:14:00.246Z,32.00
2023-04-05T12:16:28.589Z,31.30
2023-04-05T12:19:00.654Z,30.80
2023-04-05T12:21:28.387Z,32.10
2023-04-05T12:23:56.058Z,31.90
2023-04-05T12:26:24.298Z,32.80
2023-04-05T12:28:56.227Z,33.90
2023-04-05T12:31:46.884Z,31.60
2023-04-05T12:34:14.893Z,32.10
2023-04-05T12:36:46.633Z,31.80
2023-04-05T12:39:16.361Z,31.20
2023-04-05T12:41:44.244Z,30.70
2023-04-05T12:44:15.083Z,31.90
2023-04-05T12:46:47.239Z,30.30
2023-04-05T12:49:16.507Z,30.50
2023-04-05T12:51:46.073Z,31.10
2023-04-05T12:54:14.684Z,31.70
2023-04-05T12:56:42.474Z,32.70
2023-04-05T12:59:10.435Z,31.40
2023-04-05T13:01:38.803Z,30.30
2023-04-05T13:04:15.672Z,30.40
2023-04-05T13:06:47.153Z,30.70
2023-04-05T13:09:15.125Z,31.00
2023-04-05T13:11:42.465Z,30.50
2023-04-05T13:14:09.842Z,30.30
2023-04-05T13:16:37.303Z,29.40
2023-04-05T13:19:04.686Z,30.00
2023-04-05T13:21:32.579Z,29.90
2023-04-05T13:23:59.881Z,30.40
2023-04-05T13:26:27.520Z,29.90
2023-04-05T13:28:54.858Z,29.80
2023-04-05T13:31:22.415Z,29.50
2023-04-05T13:33:49.817Z,30.00
2023-04-05T13:36:17.565Z,30.60
2023-04-05T13:38:44.980Z,30.70
2023-04-05T13:41:12.478Z,32.10
2023-04-05T13:43:39.825Z,31.50
2023-04-05T13:46:07.178Z,30.90
2023-04-05T13:48:34.442Z,31.60
2023-04-05T13:51:01.820Z,29.70
2023-04-05T13:53:29.101Z,30.50
2023-04-05T13:55:56.404Z,30.80
2023-04-05T13:58:23.710Z,31.60
2023-04-05T14:00:52.557Z,32.90
2023-04-05T14:03:19.997Z,31.90
2023-04-05T14:05:50.273Z,30.50
2023-04-05T14:08:18.775Z,31.30
2023-04-05T14:10:46.087Z,30.90
2023-04-05T14:13:16.187Z,30.50
2023-04-05T14:15:43.907Z,30.50
2023-04-05T14:18:11.743Z,30.50
2023-04-05T14:20:39.592Z,31.20
2023-04-05T14:23:07.547Z,30.90
2023-04-05T14:25:35.152Z,31.90
2023-04-05T14:28:02.559Z,31.00
2023-04-05T14:30:30.768Z,30.60
2023-04-05T14:32:58.411Z,30.10
2023-04-05T14:35:26.105Z,30.00
2023-04-05T14:37:53.709Z,30.60
2023-04-05T14:40:21.599Z,31.20
2023-04-05T14:42:50.447Z,30.10
2023-04-05T14:45:18.675Z,30.50
2023-04-05T14:47:46.287Z,30.80
2023-04-05T14:50:13.686Z,30.50
2023-04-05T14:52:41.141Z,30.60
2023-04-05T14:55:08.992Z,31.00
2023-04-05T14:57:36.380Z,30.90
2023-04-05T15:00:04.088Z,30.90
2023-04-05T15:02:31.791Z,31.30
2023-04-05T15:05:00.690Z,31.80
2023-04-05T15:07:28.444Z,31.70
2023-04-05T15:09:55.913Z,31.50
2023-04-05T15:12:23.681Z,31.70
2023-04-05T15:14:52.539Z,32.70
2023-04-05T15:17:20.850Z,32.40
2023-04-05T15:19:48.260Z,32.60
2023-04-05T15:22:15.955Z,32.40
2023-04-05T15:24:43.388Z,32.10
2023-04-05T15:27:11.364Z,32.90
2023-04-05T15:29:38.717Z,33.30
2023-04-05T15:32:06.215Z,32.20
2023-04-05T15:34:33.642Z,32.20
2023-04-05T15:37:01.260Z,32.70
2023-04-05T15:39:28.658Z,33.40
2023-04-05T15:41:59.608Z,34.10
2023-04-05T15:44:27.049Z,34.10
2023-04-05T15:46:54.826Z,33.70
2023-04-05T15:49:22.209Z,34.90
2023-04-05T15:51:49.574Z,35.10
2023-04-05T15:54:18.840Z,35.20
2023-04-05T15:56:46.571Z,35.00
2023-04-05T15:59:14.542Z,33.90
2023-04-05T16:01:42.411Z,34.60
2023-04-05T16:04:10.019Z,35.00
2023-04-05T16:06:37.865Z,34.20
2023-04-05T16:09:05.258Z,34.50
2023-04-05T16:11:32.953Z,34.50
2023-04-05T16:14:00.641Z,33.30
2023-04-05T16:16:38.824Z,33.60
2023-04-05T16:19:16.426Z,33.40
2023-04-05T16:21:44.028Z,33.50
2023-04-05T16:24:11.771Z,33.90
2023-04-05T16:26:39.707Z,33.90
2023-04-05T16:29:07.139Z,33.80
2023-04-05T16:31:36.093Z,34.00
2023-04-05T16:34:03.709Z,34.00
2023-04-05T16:36:31.101Z,33.60
2023-04-05T16:38:58.386Z,33.60
2023-04-05T16:41:25.886Z,33.60
2023-04-05T16:43:53.252Z,33.80
2023-04-05T16:46:20.623Z,33.50
2023-04-05T16:48:48.144Z,33.90
2023-04-05T16:51:15.921Z,34.40
2023-04-05T16:53:43.720Z,34.90
2023-04-05T16:56:11.276Z,34.40
2023-04-05T16:58:38.624Z,34.00
2023-04-05T17:01:06.298Z,33.60
2023-04-05T17:03:33.872Z,33.70
2023-04-05T17:06:01.771Z,33.90
2023-04-05T17:08:29.067Z,34.30
2023-04-05T17:10:56.706Z,34.30
2023-04-05T17:13:24.520Z,34.30
2023-04-05T17:15:52.018Z,33.80
2023-04-05T17:18:19.429Z,33.80
2023-04-05T17:20:46.756Z,33.50
2023-04-05T17:23:14.391Z,34.50
2023-04-05T17:25:42.440Z,34.00
2023-04-05T17:28:12.770Z,34.30
2023-04-05T17:30:40.128Z,34.30
2023-04-05T17:33:07.646Z,34.40
2023-04-05T17:35:35.404Z,35.00
2023-04-05T17:38:03.428Z,34.30
2023-04-05T17:40:31.769Z,34.30
2023-04-05T17:42:59.175Z,34.60
2023-04-05T17:45:27.518Z,33.90
2023-04-05T17:47:55.039Z,34.00
2023-04-05T17:50:24.860Z,34.70
2023-04-05T17:52:52.515Z,34.30
2023-04-05T17:55:20.417Z,34.10
2023-04-05T17:57:48.352Z,34.20
2023-04-05T18:00:16.549Z,34.30
2023-04-05T18:02:45.602Z,34.10
2023-04-05T18:05:13.253Z,34.30
2023-04-05T18:07:42.468Z,35.00
2023-04-05T18:10:10.397Z,35.00
2023-04-05T18:12:38.194Z,34.30
2023-04-05T18:15:06.092Z,34.40
2023-04-05T18:17:33.677Z,34.30
2023-04-05T18:20:04.745Z,34.60
2023-04-05T18:22:32.638Z,34.40
2023-04-05T18:25:00.316Z,34.50
2023-04-05T18:27:28.789Z,34.40
2023-04-05T18:29:56.460Z,34.30
2023-04-05T18:32:24.016Z,34.70
2023-04-05T18:34:51.699Z,34.50
2023-04-05T18:37:19.079Z,34.80
2023-04-05T18:39:46.384Z,34.40
2023-04-05T18:42:13.758Z,34.70
2023-04-05T18:44:41.486Z,35.30
2023-04-05T18:47:09.027Z,35.70
2023-04-05T18:49:37.111Z,36.30
2023-04-05T18:52:06.090Z,37.40
2023-04-05T18:54:33.475Z,38.30
2023-04-05T18:57:00.985Z,38.60
2023-04-05T18:59:29.346Z,38.20
2023-04-05T19:01:56.936Z,39.00
2023-04-05T19:04:24.336Z,39.70
2023-04-05T19:06:52.036Z,39.60
2023-04-05T19:09:20.153Z,39.50
2023-04-05T19:11:47.585Z,39.80
2023-04-05T19:14:16.285Z,39.80
2023-04-05T19:16:43.909Z,39.80
2023-04-05T19:19:11.534Z,40.10
2023-04-05T19:21:39.386Z,41.10
2023-04-05T19:24:09.608Z,41.80
2023-04-05T19:26:38.014Z,43.80
2023-04-05T19:29:06.123Z,44.20
2023-04-05T19:31:35.891Z,45.30
2023-04-05T19:34:06.183Z,45.00
2023-04-05T19:36:37.613Z,45.00
2023-04-05T19:39:06.419Z,44.90
2023-04-05T19:41:33.982Z,44.80
2023-04-05T19:44:02.282Z,44.40
2023-04-05T19:46:30.550Z,43.60
2023-04-05T19:49:10.554Z,43.70
2023-04-05T19:51:38.253Z,43.50
2023-04-05T19:54:12.630Z,44.00
2023-04-05T19:56:41.863Z,44.50
2023-04-05T19:59:30.950Z,44.50
2023-04-05T20:02:00.020Z,45.00
2023-04-05T20:04:28.927Z,45.40
2023-04-05T20:06:56.837Z,45.50
2023-04-05T20:09:26.727Z,45.60
2023-04-05T20:11:57.797Z,46.50
2023-04-05T20:14:28.973Z,46.70
2023-04-05T20:16:57.938Z,47.60
2023-04-05T20:19:30.825Z,47.70
2023-04-05T20:22:02.153Z,48.20
2023-04-05T20:24:30.840Z,49.40
2023-04-05T20:26:58.688Z,49.60
2023-04-05T20:29:32.199Z,50.20
2023-04-05T20:32:01.777Z,51.20
2023-04-05T20:34:32.274Z,51.50
2023-04-05T20:37:11.233Z,50.80
2023-04-05T20:39:39.281Z,49.70
2023-04-05T20:42:09.385Z,49.80
2023-04-05T20:44:37.730Z,49.60
2023-04-05T20:47:07.604Z,49.80
2023-04-05T20:49:35.029Z,48.60
2023-04-05T20:52:05.096Z,49.00
2023-04-05T20:54:32.594Z,49.30
2023-04-05T20:57:01.948Z,48.80
2023-04-05T20:59:33.331Z,49.20
2023-04-05T21:02:35.445Z,49.80
2023-04-05T21:05:49.239Z,50.20
2023-04-05T21:08:20.034Z,49.40
2023-04-05T21:11:03.635Z,49.70
2023-04-05T21:13:33.635Z,50.30
2023-04-05T21:16:06.774Z,49.70
2023-04-05T21:18:41.417Z,52.10
2023-04-05T21:21:10.099Z,50.50
2023-04-05T21:23:38.742Z,50.50
2023-04-05T21:26:07.459Z,51.00
2023-04-05T21:28:35.887Z,52.00
2023-04-05T21:31:04.126Z,52.00
2023-04-05T21:33:43.376Z,51.60
2023-04-05T21:36:12.967Z,51.20
2023-04-05T21:38:48.656Z,51.50
2023-04-05T21:41:17.760Z,52.00
2023-04-05T21:43:47.225Z,52.90
2023-04-05T21:46:15.792Z,51.60
2023-04-05T21:48:50.931Z,51.10
2023-04-05T21:51:19.046Z,51.30
2023-04-05T21:53:48.236Z,51.50
2023-04-05T21:56:16.933Z,51.60
2023-04-05T21:58:45.297Z,52.90
2023-04-05T22:01:14.049Z,52.00
2023-04-05T22:03:43.464Z,52.20
2023-04-05T22:06:11.754Z,52.90
2023-04-05T22:08:40.106Z,52.80
2023-04-05T22:11:08.947Z,54.00
2023-04-05T22:13:38.180Z,53.60
2023-04-05T22:16:07.326Z,54.70
2023-04-05T22:18:35.677Z,55.20
2023-04-05T22:21:04.712Z,55.50
2023-04-05T22:23:34.455Z,55.80
2023-04-05T22:26:07.859Z,56.80
2023-04-05T22:28:36.317Z,57.00
2023-04-05T22:31:04.564Z,57.10
2023-04-05T22:33:32.482Z,57.00
2023-04-05T22:36:01.334Z,57.60
2023-04-05T22:38:29.979Z,57.50
2023-04-05T22:40:59.301Z,57.70
2023-04-05T22:43:28.809Z,58.30
2023-04-05T22:45:57.252Z,58.20
2023-04-05T22:48:25.199Z,58.00
2023-04-05T22:50:53.531Z,58.00
2023-04-05T22:53:21.405Z,58.50
2023-04-05T22:55:49.365Z,59.30
2023-04-05T22:58:17.424Z,59.20
2023-04-05T23:00:45.294Z,59.30
2023-04-05T23:03:12.909Z,59.00
2023-04-05T23:05:40.631Z,59.40
2023-04-05T23:08:08.241Z,59.10
2023-04-05T23:13:49.608Z,59.70
2023-04-05T23:16:17.239Z,59.10
2023-04-05T23:18:44.838Z,59.70
2023-04-05T23:21:12.588Z,59.20
2023-04-05T23:23:40.343Z,59.50
2023-04-05T23:26:08.430Z,59.70
2023-04-05T23:28:36.371Z,60.30
2023-04-05T23:31:04.244Z,59.80
2023-04-05T23:33:31.762Z,60.60
2023-04-05T23:35:59.307Z,61.60
2023-04-05T23:38:26.939Z,60.60
2023-04-05T23:40:54.407Z,61.60
2023-04-05T23:43:22.896Z,62.90
2023-04-05T23:45:53.342Z,61.60
2023-04-05T23:48:22.447Z,62.20
2023-04-05T23:50:57.806Z,62.30
2023-04-05T23:53:25.916Z,62.20
2023-04-05T23:55:55.731Z,62.00
2023-04-05T23:58:23.416Z,62.20
